sensor_id;sensor_type;location;lat;lon;timestamp;temperature;humidity
66831;DHT22;53739;44.224;22.528;2023-05-07T00:00:21;332.90;2329.60
66831;DHT22;53739;44.224;22.528;2023-05-07T00:02:47;308.10;2304.00
66831;DHT22;53739;44.224;22.528;2023-05-07T00:05:13;308.10;2304.00
66831;DHT22;53739;44.224;22.528;2023-05-07T00:07:39;332.90;2329.60
66831;DHT22;53739;44.224;22.528;2023-05-07T00:10:06;332.90;2329.60
66831;DHT22;53739;44.224;22.528;2023-05-07T00:12:32;332.80;2329.60
66831;DHT22;53739;44.224;22.528;2023-05-07T00:15:05;332.80;2329.60
66831;DHT22;53739;44.224;22.528;2023-05-07T00:17:32;308.10;2304.00
66831;DHT22;53739;44.224;22.528;2023-05-07T00:19:58;308.10;2304.00
66831;DHT22;53739;44.224;22.528;2023-05-07T00:22:24;308.10;2304.00
66831;DHT22;53739;44.224;22.528;2023-05-07T00:24:49;307.90;2304.00
66831;DHT22;53739;44.224;22.528;2023-05-07T00:27:15;308.10;2304.00
66831;DHT22;53739;44.224;22.528;2023-05-07T00:29:41;308.10;2304.00
66831;DHT22;53739;44.224;22.528;2023-05-07T00:32:08;308.10;2304.00
66831;DHT22;53739;44.224;22.528;2023-05-07T00:34:34;308.10;2304.00
66831;DHT22;53739;44.224;22.528;2023-05-07T00:37:01;308.10;2304.00
66831;DHT22;53739;44.224;22.528;2023-05-07T00:39:27;308.10;2304.00
66831;DHT22;53739;44.224;22.528;2023-05-07T00:41:52;308.10;2304.00
66831;DHT22;53739;44.224;22.528;2023-05-07T00:44:18;308.10;2304.00
66831;DHT22;53739;44.224;22.528;2023-05-07T00:46:44;308.10;2304.00
66831;DHT22;53739;44.224;22.528;2023-05-07T00:49:10;308.00;2304.00
66831;DHT22;53739;44.224;22.528;2023-05-07T00:51:37;308.10;2304.00
66831;DHT22;53739;44.224;22.528;2023-05-07T00:54:03;307.90;2304.00
66831;DHT22;53739;44.224;22.528;2023-05-07T00:56:29;307.80;2304.00
66831;DHT22;53739;44.224;22.528;2023-05-07T00:58:55;307.90;2304.00
66831;DHT22;53739;44.224;22.528;2023-05-07T01:01:21;307.80;2304.00
66831;DHT22;53739;44.224;22.528;2023-05-07T01:03:46;307.80;2304.00
66831;DHT22;53739;44.224;22.528;2023-05-07T01:06:13;307.80;2304.00
66831;DHT22;53739;44.224;22.528;2023-05-07T01:08:42;307.80;2304.00
66831;DHT22;53739;44.224;22.528;2023-05-07T01:20:57;307.80;2304.00
66831;DHT22;53739;44.224;22.528;2023-05-07T01:23:25;307.80;2304.00
66831;DHT22;53739;44.224;22.528;2023-05-07T01:25:54;307.50;2304.00
66831;DHT22;53739;44.224;22.528;2023-05-07T01:48:02;307.20;2304.00
66831;DHT22;53739;44.224;22.528;2023-05-07T02:17:16;282.30;2278.40
66831;DHT22;53739;44.224;22.528;2023-05-07T02:19:42;282.20;2278.40
66831;DHT22;53739;44.224;22.528;2023-05-07T02:22:09;282.10;2278.40
66831;DHT22;53739;44.224;22.528;2023-05-07T02:24:35;282.10;2278.40
66831;DHT22;53739;44.224;22.528;2023-05-07T02:27:01;282.20;2278.40
66831;DHT22;53739;44.224;22.528;2023-05-07T02:29:27;282.20;2278.40
66831;DHT22;53739;44.224;22.528;2023-05-07T02:31:53;282.30;2278.40
66831;DHT22;53739;44.224;22.528;2023-05-07T02:34:19;282.20;2278.40
66831;DHT22;53739;44.224;22.528;2023-05-07T02:36:45;282.00;2278.40
66831;DHT22;53739;44.224;22.528;2023-05-07T02:39:12;282.00;2278.40
66831;DHT22;53739;44.224;22.528;2023-05-07T02:41:38;282.00;2278.40
66831;DHT22;53739;44.224;22.528;2023-05-07T02:44:04;282.00;2278.40
66831;DHT22;53739;44.224;22.528;2023-05-07T02:46:29;282.00;2278.40
66831;DHT22;53739;44.224;22.528;2023-05-07T02:48:55;282.00;2278.40
66831;DHT22;53739;44.224;22.528;2023-05-07T02:51:22;282.10;2278.40
66831;DHT22;53739;44.224;22.528;2023-05-07T02:53:48;282.10;2278.40
66831;DHT22;53739;44.224;22.528;2023-05-07T02:56:14;282.10;2278.40
66831;DHT22;53739;44.224;22.528;2023-05-07T02:58:40;282.10;2278.40
66831;DHT22;53739;44.224;22.528;2023-05-07T03:01:07;282.00;2278.40
66831;DHT22;53739;44.224;22.528;2023-05-07T03:03:33;282.00;2278.40
66831;DHT22;53739;44.224;22.528;2023-05-07T03:05:59;282.00;2278.40
66831;DHT22;53739;44.224;22.528;2023-05-07T03:08:25;282.10;2278.40
66831;DHT22;53739;44.224;22.528;2023-05-07T03:10:51;281.80;2278.40
66831;DHT22;53739;44.224;22.528;2023-05-07T03:13:17;281.60;2278.40
66831;DHT22;53739;44.224;22.528;2023-05-07T03:15:43;281.70;2278.40
66831;DHT22;53739;44.224;22.528;2023-05-07T03:18:09;256.90;2252.80
66831;DHT22;53739;44.224;22.528;2023-05-07T03:30:22;256.90;2252.80
66831;DHT22;53739;44.224;22.528;2023-05-07T03:32:48;256.80;2252.80
66831;DHT22;53739;44.224;22.528;2023-05-07T03:35:14;256.90;2252.80
66831;DHT22;53739;44.224;22.528;2023-05-07T03:37:40;256.60;2252.80
66831;DHT22;53739;44.224;22.528;2023-05-07T03:40:06;256.80;2252.80
66831;DHT22;53739;44.224;22.528;2023-05-07T03:42:33;256.90;2252.80
66831;DHT22;53739;44.224;22.528;2023-05-07T03:44:58;281.70;2278.40
66831;DHT22;53739;44.224;22.528;2023-05-07T03:47:24;281.70;2278.40
66831;DHT22;53739;44.224;22.528;2023-05-07T03:49:50;281.80;2278.40
66831;DHT22;53739;44.224;22.528;2023-05-07T03:52:18;281.90;2278.40
66831;DHT22;53739;44.224;22.528;2023-05-07T03:54:48;281.90;2278.40
66831;DHT22;53739;44.224;22.528;2023-05-07T03:57:14;282.00;2278.40
66831;DHT22;53739;44.224;22.528;2023-05-07T03:59:39;282.00;2278.40
66831;DHT22;53739;44.224;22.528;2023-05-07T04:02:06;282.10;2278.40
66831;DHT22;53739;44.224;22.528;2023-05-07T04:04:31;282.20;2278.40
66831;DHT22;53739;44.224;22.528;2023-05-07T04:06:58;282.20;2278.40
66831;DHT22;53739;44.224;22.528;2023-05-07T04:09:25;282.30;2278.40
66831;DHT22;53739;44.224;22.528;2023-05-07T04:11:51;282.40;2278.40
66831;DHT22;53739;44.224;22.528;2023-05-07T04:14:17;282.40;2278.40
66831;DHT22;53739;44.224;22.528;2023-05-07T04:16:43;282.50;2278.40
66831;DHT22;53739;44.224;22.528;2023-05-07T04:19:08;307.20;2304.00
66831;DHT22;53739;44.224;22.528;2023-05-07T04:21:34;307.30;2304.00
66831;DHT22;53739;44.224;22.528;2023-05-07T04:24:00;307.40;2304.00
66831;DHT22;53739;44.224;22.528;2023-05-07T04:26:26;307.50;2304.00
66831;DHT22;53739;44.224;22.528;2023-05-07T04:28:51;307.60;2304.00
66831;DHT22;53739;44.224;22.528;2023-05-07T04:31:17;307.60;2304.00
66831;DHT22;53739;44.224;22.528;2023-05-07T04:33:43;307.70;2304.00
66831;DHT22;53739;44.224;22.528;2023-05-07T04:36:09;307.80;2304.00
66831;DHT22;53739;44.224;22.528;2023-05-07T04:38:34;307.80;2304.00
66831;DHT22;53739;44.224;22.528;2023-05-07T04:41:05;307.90;2304.00
66831;DHT22;53739;44.224;22.528;2023-05-07T04:43:31;308.00;2304.00
66831;DHT22;53739;44.224;22.528;2023-05-07T04:45:57;308.10;2099.20
66831;DHT22;53739;44.224;22.528;2023-05-07T04:48:23;332.90;2329.60
66831;DHT22;53739;44.224;22.528;2023-05-07T04:50:52;332.90;2329.60
66831;DHT22;53739;44.224;22.528;2023-05-07T04:53:18;333.10;2073.60
66831;DHT22;53739;44.224;22.528;2023-05-07T04:55:44;333.20;2329.60
66831;DHT22;53739;44.224;22.528;2023-05-07T04:58:11;333.30;128.00
66831;DHT22;53739;44.224;22.528;2023-05-07T05:00:37;333.50;1536.00
66831;DHT22;53739;44.224;22.528;2023-05-07T05:29:53;384.30;128.00
66831;DHT22;53739;44.224;22.528;2023-05-07T05:32:19;384.50;128.00
66831;DHT22;53739;44.224;22.528;2023-05-07T05:34:45;384.70;128.00
66831;DHT22;53739;44.224;22.528;2023-05-07T05:37:11;409.70;128.00
66831;DHT22;53739;44.224;22.528;2023-05-07T05:39:36;409.60;128.00
66831;DHT22;53739;44.224;22.528;2023-05-07T05:42:02;410.20;128.00
66831;DHT22;53739;44.224;22.528;2023-05-07T05:44:28;410.20;128.00
66831;DHT22;53739;44.224;22.528;2023-05-07T05:46:54;435.30;128.00
66831;DHT22;53739;44.224;22.528;2023-05-07T05:49:21;435.30;281.60
66831;DHT22;53739;44.224;22.528;2023-05-07T05:51:47;435.60;128.00
66831;DHT22;53739;44.224;22.528;2023-05-07T05:54:16;435.80;1971.20
66831;DHT22;53739;44.224;22.528;2023-05-07T05:56:42;436.00;2355.20
66831;DHT22;53739;44.224;22.528;2023-05-07T05:59:08;460.80;2380.80
66831;DHT22;53739;44.224;22.528;2023-05-07T06:01:34;461.10;1817.60
66831;DHT22;53739;44.224;22.528;2023-05-07T06:03:59;461.30;2380.80
66831;DHT22;53739;44.224;22.528;2023-05-07T06:06:25;461.40;2380.80
66831;DHT22;53739;44.224;22.528;2023-05-07T06:08:57;461.60;2380.80
66831;DHT22;53739;44.224;22.528;2023-05-07T06:11:23;486.40;128.00
66831;DHT22;53739;44.224;22.528;2023-05-07T06:13:49;486.80;128.00
66831;DHT22;53739;44.224;22.528;2023-05-07T06:16:15;487.10;128.00
66831;DHT22;53739;44.224;22.528;2023-05-07T06:18:40;487.10;128.00
66831;DHT22;53739;44.224;22.528;2023-05-07T06:21:06;487.30;460.80
66831;DHT22;53739;44.224;22.528;2023-05-07T06:23:32;512.00;128.00
66831;DHT22;53739;44.224;22.528;2023-05-07T06:25:58;512.00;128.00
66831;DHT22;53739;44.224;22.528;2023-05-07T06:28:24;512.50;128.00
66831;DHT22;53739;44.224;22.528;2023-05-07T06:34:15;537.70;128.00
66831;DHT22;53739;44.224;22.528;2023-05-07T06:37:19;537.90;691.20
66831;DHT22;53739;44.224;22.528;2023-05-07T06:39:45;537.70;128.00
66831;DHT22;53739;44.224;22.528;2023-05-07T06:42:10;538.00;128.00
66831;DHT22;53739;44.224;22.528;2023-05-07T06:44:45;537.80;332.80
66831;DHT22;53739;44.224;22.528;2023-05-07T06:47:14;512.90;128.00
66831;DHT22;53739;44.224;22.528;2023-05-07T06:49:40;537.70;128.00
66831;DHT22;53739;44.224;22.528;2023-05-07T06:52:05;538.10;128.00
66831;DHT22;53739;44.224;22.528;2023-05-07T06:59:24;538.40;128.00
66831;DHT22;53739;44.224;22.528;2023-05-07T07:01:50;538.40;128.00
66831;DHT22;53739;44.224;22.528;2023-05-07T07:04:18;563.20;128.00
66831;DHT22;53739;44.224;22.528;2023-05-07T07:06:45;563.50;128.00
66831;DHT22;53739;44.224;22.528;2023-05-07T07:09:11;538.30;128.00
66831;DHT22;53739;44.224;22.528;2023-05-07T07:11:37;538.20;128.00
66831;DHT22;53739;44.224;22.528;2023-05-07T07:14:02;538.50;128.00
66831;DHT22;53739;44.224;22.528;2023-05-07T07:16:30;563.60;128.00
66831;DHT22;53739;44.224;22.528;2023-05-07T07:18:56;563.80;281.60
66831;DHT22;53739;44.224;22.528;2023-05-07T07:21:36;564.10;128.00
66831;DHT22;53739;44.224;22.528;2023-05-07T07:24:02;588.80;128.00
66831;DHT22;53739;44.224;22.528;2023-05-07T07:26:28;564.00;128.00
66831;DHT22;53739;44.224;22.528;2023-05-07T07:28:53;564.00;128.00
66831;DHT22;53739;44.224;22.528;2023-05-07T07:31:19;564.10;128.00
66831;DHT22;53739;44.224;22.528;2023-05-07T07:34:03;588.80;128.00
66831;DHT22;53739;44.224;22.528;2023-05-07T07:36:29;589.10;128.00
66831;DHT22;53739;44.224;22.528;2023-05-07T07:38:55;589.10;128.00
66831;DHT22;53739;44.224;22.528;2023-05-07T07:41:21;589.30;128.00
66831;DHT22;53739;44.224;22.528;2023-05-07T07:43:47;588.90;256.00
66831;DHT22;53739;44.224;22.528;2023-05-07T07:46:13;589.00;128.00
66831;DHT22;53739;44.224;22.528;2023-05-07T07:48:38;589.30;128.00
66831;DHT22;53739;44.224;22.528;2023-05-07T07:51:04;589.40;1920.00
66831;DHT22;53739;44.224;22.528;2023-05-07T07:53:30;589.00;2432.00
66831;DHT22;53739;44.224;22.528;2023-05-07T07:55:56;589.10;128.00
66831;DHT22;53739;44.224;22.528;2023-05-07T07:58:22;589.50;128.00
66831;DHT22;53739;44.224;22.528;2023-05-07T08:00:48;614.40;486.40
66831;DHT22;53739;44.224;22.528;2023-05-07T08:03:14;614.60;2432.00
66831;DHT22;53739;44.224;22.528;2023-05-07T08:05:42;614.70;2432.00
66831;DHT22;53739;44.224;22.528;2023-05-07T08:08:08;614.80;2432.00
66831;DHT22;53739;44.224;22.528;2023-05-07T08:10:34;614.80;2432.00
66831;DHT22;53739;44.224;22.528;2023-05-07T08:13:00;614.80;998.40
66831;DHT22;53739;44.224;22.528;2023-05-07T08:15:26;614.80;2432.00
66831;DHT22;53739;44.224;22.528;2023-05-07T08:17:55;615.00;2380.80
66831;DHT22;53739;44.224;22.528;2023-05-07T08:20:23;614.40;128.00
66831;DHT22;53739;44.224;22.528;2023-05-07T08:22:49;614.80;1894.40
66831;DHT22;53739;44.224;22.528;2023-05-07T08:25:29;614.90;2432.00
66831;DHT22;53739;44.224;22.528;2023-05-07T08:27:55;615.10;2329.60
66831;DHT22;53739;44.224;22.528;2023-05-07T08:30:21;615.10;2432.00
66831;DHT22;53739;44.224;22.528;2023-05-07T08:32:49;615.20;2432.00
66831;DHT22;53739;44.224;22.528;2023-05-07T08:35:18;615.00;2432.00
66831;DHT22;53739;44.224;22.528;2023-05-07T08:37:53;614.80;2432.00
66831;DHT22;53739;44.224;22.528;2023-05-07T08:40:43;614.90;2432.00
66831;DHT22;53739;44.224;22.528;2023-05-07T08:43:48;615.30;435.20
66831;DHT22;53739;44.224;22.528;2023-05-07T08:46:26;615.30;2432.00
66831;DHT22;53739;44.224;22.528;2023-05-07T08:48:56;615.20;2432.00
66831;DHT22;53739;44.224;22.528;2023-05-07T08:51:22;640.00;2432.00
66831;DHT22;53739;44.224;22.528;2023-05-07T08:53:49;615.30;128.00
66831;DHT22;53739;44.224;22.528;2023-05-07T08:56:24;615.10;1792.00
66831;DHT22;53739;44.224;22.528;2023-05-07T08:58:53;615.00;2432.00
66831;DHT22;53739;44.224;22.528;2023-05-07T09:01:23;614.90;2432.00
66831;DHT22;53739;44.224;22.528;2023-05-07T09:04:14;615.00;2432.00
66831;DHT22;53739;44.224;22.528;2023-05-07T09:07:21;615.20;2099.20
66831;DHT22;53739;44.224;22.528;2023-05-07T09:09:48;640.00;128.00
66831;DHT22;53739;44.224;22.528;2023-05-07T09:13:21;614.70;128.00
66831;DHT22;53739;44.224;22.528;2023-05-07T09:15:28;614.80;128.00
66831;DHT22;53739;44.224;22.528;2023-05-07T09:18:12;615.10;2432.00
66831;DHT22;53739;44.224;22.528;2023-05-07T09:21:01;640.00;2432.00
66831;DHT22;53739;44.224;22.528;2023-05-07T09:26:37;640.50;128.00
66831;DHT22;53739;44.224;22.528;2023-05-07T09:29:03;615.30;2432.00
66831;DHT22;53739;44.224;22.528;2023-05-07T09:31:29;615.20;128.00
66831;DHT22;53739;44.224;22.528;2023-05-07T09:33:54;640.20;128.00
66831;DHT22;53739;44.224;22.528;2023-05-07T09:36:33;640.50;2432.00
66831;DHT22;53739;44.224;22.528;2023-05-07T09:39:39;640.50;128.00
66831;DHT22;53739;44.224;22.528;2023-05-07T09:52:05;665.70;2432.00
66831;DHT22;53739;44.224;22.528;2023-05-07T09:54:33;665.60;2099.20
66831;DHT22;53739;44.224;22.528;2023-05-07T10:04:05;666.10;153.60
66831;DHT22;53739;44.224;22.528;2023-05-07T10:09:56;666.20;2432.00
66831;DHT22;53739;44.224;22.528;2023-05-07T10:12:30;666.20;2432.00
66831;DHT22;53739;44.224;22.528;2023-05-07T10:15:05;666.10;2432.00
66831;DHT22;53739;44.224;22.528;2023-05-07T10:17:36;640.70;2432.00
66831;DHT22;53739;44.224;22.528;2023-05-07T10:20:11;640.90;2432.00
66831;DHT22;53739;44.224;22.528;2023-05-07T10:22:47;665.70;2432.00
66831;DHT22;53739;44.224;22.528;2023-05-07T10:26:00;665.80;2432.00
66831;DHT22;53739;44.224;22.528;2023-05-07T10:28:11;666.20;2150.40
66831;DHT22;53739;44.224;22.528;2023-05-07T10:33:16;666.20;2432.00
66831;DHT22;53739;44.224;22.528;2023-05-07T10:35:44;666.30;2432.00
66831;DHT22;53739;44.224;22.528;2023-05-07T10:38:10;666.30;2432.00
66831;DHT22;53739;44.224;22.528;2023-05-07T10:40:36;666.40;2432.00
66831;DHT22;53739;44.224;22.528;2023-05-07T10:43:07;666.20;2304.00
66831;DHT22;53739;44.224;22.528;2023-05-07T10:45:33;666.50;2432.00
66831;DHT22;53739;44.224;22.528;2023-05-07T10:48:15;666.40;2432.00
66831;DHT22;53739;44.224;22.528;2023-05-07T10:50:44;666.00;2432.00
66831;DHT22;53739;44.224;22.528;2023-05-07T10:56:08;691.30;2432.00
66831;DHT22;53739;44.224;22.528;2023-05-07T10:58:29;665.90;2432.00
66831;DHT22;53739;44.224;22.528;2023-05-07T11:01:00;665.60;2432.00
66831;DHT22;53739;44.224;22.528;2023-05-07T11:03:27;665.90;2432.00
66831;DHT22;53739;44.224;22.528;2023-05-07T11:06:13;666.40;2432.00
66831;DHT22;53739;44.224;22.528;2023-05-07T11:08:56;665.70;2432.00
66831;DHT22;53739;44.224;22.528;2023-05-07T11:11:57;640.50;2432.00
66831;DHT22;53739;44.224;22.528;2023-05-07T11:17:11;666.10;2432.00
66831;DHT22;53739;44.224;22.528;2023-05-07T11:19:55;665.70;2432.00
66831;DHT22;53739;44.224;22.528;2023-05-07T11:24:59;691.20;2432.00
66831;DHT22;53739;44.224;22.528;2023-05-07T11:27:28;666.30;2099.20
66831;DHT22;53739;44.224;22.528;2023-05-07T11:29:55;666.40;2432.00
66831;DHT22;53739;44.224;22.528;2023-05-07T11:32:24;691.40;2432.00
66831;DHT22;53739;44.224;22.528;2023-05-07T11:34:54;691.20;2432.00
66831;DHT22;53739;44.224;22.528;2023-05-07T11:37:21;691.30;2432.00
66831;DHT22;53739;44.224;22.528;2023-05-07T11:39:47;691.40;2432.00
66831;DHT22;53739;44.224;22.528;2023-05-07T11:42:35;691.70;2432.00
66831;DHT22;53739;44.224;22.528;2023-05-07T11:45:03;691.80;2432.00
66831;DHT22;53739;44.224;22.528;2023-05-07T11:47:33;691.90;2432.00
66831;DHT22;53739;44.224;22.528;2023-05-07T11:50:06;691.80;2432.00
66831;DHT22;53739;44.224;22.528;2023-05-07T11:52:33;691.90;2432.00
66831;DHT22;53739;44.224;22.528;2023-05-07T11:55:00;692.00;2432.00
66831;DHT22;53739;44.224;22.528;2023-05-07T11:57:27;692.00;2432.00
66831;DHT22;53739;44.224;22.528;2023-05-07T12:02:20;716.90;2432.00
66831;DHT22;53739;44.224;22.528;2023-05-07T12:04:46;717.10;2432.00
66831;DHT22;53739;44.224;22.528;2023-05-07T12:07:13;717.10;2432.00
66831;DHT22;53739;44.224;22.528;2023-05-07T12:09:40;716.90;2432.00
66831;DHT22;53739;44.224;22.528;2023-05-07T12:12:06;717.10;2432.00
66831;DHT22;53739;44.224;22.528;2023-05-07T12:14:32;717.10;2432.00
66831;DHT22;53739;44.224;22.528;2023-05-07T12:17:00;717.10;2432.00
66831;DHT22;53739;44.224;22.528;2023-05-07T12:19:29;691.60;2073.60
66831;DHT22;53739;44.224;22.528;2023-05-07T12:21:56;666.40;2406.40
66831;DHT22;53739;44.224;22.528;2023-05-07T12:24:22;666.50;2432.00
66831;DHT22;53739;44.224;22.528;2023-05-07T12:26:48;666.50;2432.00
66831;DHT22;53739;44.224;22.528;2023-05-07T12:29:14;691.30;2432.00
66831;DHT22;53739;44.224;22.528;2023-05-07T12:31:41;691.40;2432.00
66831;DHT22;53739;44.224;22.528;2023-05-07T12:34:07;691.60;2432.00
66831;DHT22;53739;44.224;22.528;2023-05-07T12:36:37;691.80;2432.00
66831;DHT22;53739;44.224;22.528;2023-05-07T12:39:05;691.70;2432.00
66831;DHT22;53739;44.224;22.528;2023-05-07T12:41:36;691.60;2432.00
66831;DHT22;53739;44.224;22.528;2023-05-07T12:44:17;691.80;2432.00
66831;DHT22;53739;44.224;22.528;2023-05-07T12:46:43;691.80;2432.00
66831;DHT22;53739;44.224;22.528;2023-05-07T12:49:08;691.20;2432.00
66831;DHT22;53739;44.224;22.528;2023-05-07T12:51:35;666.10;2201.60
66831;DHT22;53739;44.224;22.528;2023-05-07T12:54:01;666.20;2432.00
66831;DHT22;53739;44.224;22.528;2023-05-07T12:56:26;666.00;2432.00
66831;DHT22;53739;44.224;22.528;2023-05-07T12:58:57;666.20;2432.00
66831;DHT22;53739;44.224;22.528;2023-05-07T13:01:29;666.50;2432.00
66831;DHT22;53739;44.224;22.528;2023-05-07T13:03:55;691.30;2432.00
66831;DHT22;53739;44.224;22.528;2023-05-07T13:06:21;691.70;2432.00
66831;DHT22;53739;44.224;22.528;2023-05-07T13:08:47;691.90;2432.00
66831;DHT22;53739;44.224;22.528;2023-05-07T13:11:13;691.90;2432.00
66831;DHT22;53739;44.224;22.528;2023-05-07T13:13:40;691.90;2304.00
66831;DHT22;53739;44.224;22.528;2023-05-07T13:16:08;691.90;2432.00
66831;DHT22;53739;44.224;22.528;2023-05-07T13:18:40;691.90;2432.00
66831;DHT22;53739;44.224;22.528;2023-05-07T13:21:06;692.00;2432.00
66831;DHT22;53739;44.224;22.528;2023-05-07T13:23:32;691.70;2432.00
66831;DHT22;53739;44.224;22.528;2023-05-07T13:25:57;691.80;2329.60
66831;DHT22;53739;44.224;22.528;2023-05-07T13:28:24;691.90;2432.00
66831;DHT22;53739;44.224;22.528;2023-05-07T13:30:51;716.80;2432.00
66831;DHT22;53739;44.224;22.528;2023-05-07T13:33:18;692.10;2432.00
66831;DHT22;53739;44.224;22.528;2023-05-07T13:35:44;716.80;2432.00
66831;DHT22;53739;44.224;22.528;2023-05-07T13:38:10;716.80;2432.00
66831;DHT22;53739;44.224;22.528;2023-05-07T13:40:36;692.00;2432.00
66831;DHT22;53739;44.224;22.528;2023-05-07T13:43:02;691.90;2432.00
66831;DHT22;53739;44.224;22.528;2023-05-07T13:45:29;691.90;2432.00
66831;DHT22;53739;44.224;22.528;2023-05-07T13:47:57;692.10;2432.00
66831;DHT22;53739;44.224;22.528;2023-05-07T13:50:24;716.80;2278.40
66831;DHT22;53739;44.224;22.528;2023-05-07T13:52:50;692.10;2432.00
66831;DHT22;53739;44.224;22.528;2023-05-07T13:55:20;691.40;2432.00
66831;DHT22;53739;44.224;22.528;2023-05-07T13:57:47;691.70;2432.00
66831;DHT22;53739;44.224;22.528;2023-05-07T14:00:14;691.40;2432.00
66831;DHT22;53739;44.224;22.528;2023-05-07T14:02:41;691.40;2432.00
66831;DHT22;53739;44.224;22.528;2023-05-07T14:05:07;691.30;2432.00
66831;DHT22;53739;44.224;22.528;2023-05-07T14:07:34;691.40;2432.00
66831;DHT22;53739;44.224;22.528;2023-05-07T14:10:01;691.50;2432.00
66831;DHT22;53739;44.224;22.528;2023-05-07T14:12:27;691.60;2176.00
66831;DHT22;53739;44.224;22.528;2023-05-07T14:14:53;691.70;2150.40
66831;DHT22;53739;44.224;22.528;2023-05-07T14:17:19;691.60;2432.00
66831;DHT22;53739;44.224;22.528;2023-05-07T14:19:45;691.80;2432.00
66831;DHT22;53739;44.224;22.528;2023-05-07T14:22:13;691.70;2432.00
66831;DHT22;53739;44.224;22.528;2023-05-07T14:24:39;691.80;2432.00
66831;DHT22;53739;44.224;22.528;2023-05-07T14:27:06;691.70;2432.00
66831;DHT22;53739;44.224;22.528;2023-05-07T14:29:32;691.60;2432.00
66831;DHT22;53739;44.224;22.528;2023-05-07T14:31:58;691.60;2099.20
66831;DHT22;53739;44.224;22.528;2023-05-07T14:34:23;691.60;2150.40
66831;DHT22;53739;44.224;22.528;2023-05-07T14:36:49;691.60;2124.80
66831;DHT22;53739;44.224;22.528;2023-05-07T14:39:15;691.60;2432.00
66831;DHT22;53739;44.224;22.528;2023-05-07T14:41:41;691.60;2432.00
66831;DHT22;53739;44.224;22.528;2023-05-07T14:44:07;691.60;2432.00
66831;DHT22;53739;44.224;22.528;2023-05-07T14:46:33;691.50;2432.00
66831;DHT22;53739;44.224;22.528;2023-05-07T14:48:59;691.60;2432.00
66831;DHT22;53739;44.224;22.528;2023-05-07T14:51:25;691.50;2432.00
66831;DHT22;53739;44.224;22.528;2023-05-07T14:53:51;691.60;2432.00
66831;DHT22;53739;44.224;22.528;2023-05-07T14:56:17;691.40;2432.00
66831;DHT22;53739;44.224;22.528;2023-05-07T14:58:43;691.50;2432.00
66831;DHT22;53739;44.224;22.528;2023-05-07T15:01:09;691.30;2432.00
66831;DHT22;53739;44.224;22.528;2023-05-07T15:03:35;691.20;2432.00
66831;DHT22;53739;44.224;22.528;2023-05-07T15:06:02;666.50;2432.00
66831;DHT22;53739;44.224;22.528;2023-05-07T15:08:28;666.50;2432.00
66831;DHT22;53739;44.224;22.528;2023-05-07T15:10:54;691.20;2432.00
66831;DHT22;53739;44.224;22.528;2023-05-07T15:13:21;691.20;2432.00
66831;DHT22;53739;44.224;22.528;2023-05-07T15:15:47;691.30;2278.40
66831;DHT22;53739;44.224;22.528;2023-05-07T15:18:14;691.30;2432.00
66831;DHT22;53739;44.224;22.528;2023-05-07T15:20:40;666.50;2432.00
66831;DHT22;53739;44.224;22.528;2023-05-07T15:23:07;666.50;2432.00
66831;DHT22;53739;44.224;22.528;2023-05-07T15:25:37;666.50;2432.00
66831;DHT22;53739;44.224;22.528;2023-05-07T15:28:03;666.40;2432.00
66831;DHT22;53739;44.224;22.528;2023-05-07T15:30:29;666.20;2432.00
66831;DHT22;53739;44.224;22.528;2023-05-07T15:32:55;666.00;2432.00
66831;DHT22;53739;44.224;22.528;2023-05-07T15:35:21;665.90;2432.00
66831;DHT22;53739;44.224;22.528;2023-05-07T15:37:50;665.90;2432.00
66831;DHT22;53739;44.224;22.528;2023-05-07T15:40:16;665.70;2432.00
66831;DHT22;53739;44.224;22.528;2023-05-07T15:42:44;665.60;2432.00
66831;DHT22;53739;44.224;22.528;2023-05-07T15:45:11;640.90;2432.00
66831;DHT22;53739;44.224;22.528;2023-05-07T15:47:37;640.70;2432.00
66831;DHT22;53739;44.224;22.528;2023-05-07T15:50:03;640.60;2406.40
66831;DHT22;53739;44.224;22.528;2023-05-07T15:52:29;640.50;2201.60
66831;DHT22;53739;44.224;22.528;2023-05-07T15:54:56;640.50;2432.00
66831;DHT22;53739;44.224;22.528;2023-05-07T15:57:23;640.50;2432.00
66831;DHT22;53739;44.224;22.528;2023-05-07T15:59:49;640.50;2432.00
66831;DHT22;53739;44.224;22.528;2023-05-07T16:02:15;640.40;2432.00
66831;DHT22;53739;44.224;22.528;2023-05-07T16:04:41;640.40;2432.00
66831;DHT22;53739;44.224;22.528;2023-05-07T16:07:07;640.40;2432.00
66831;DHT22;53739;44.224;22.528;2023-05-07T16:09:33;640.40;2432.00
66831;DHT22;53739;44.224;22.528;2023-05-07T16:11:59;640.40;2432.00
66831;DHT22;53739;44.224;22.528;2023-05-07T16:14:25;640.30;2432.00
66831;DHT22;53739;44.224;22.528;2023-05-07T16:16:51;640.20;2432.00
66831;DHT22;53739;44.224;22.528;2023-05-07T16:19:18;640.20;2304.00
66831;DHT22;53739;44.224;22.528;2023-05-07T16:21:44;640.10;2432.00
66831;DHT22;53739;44.224;22.528;2023-05-07T16:24:10;640.00;2432.00
66831;DHT22;53739;44.224;22.528;2023-05-07T16:26:36;615.30;2432.00
66831;DHT22;53739;44.224;22.528;2023-05-07T16:29:03;615.30;2432.00
66831;DHT22;53739;44.224;22.528;2023-05-07T16:31:29;615.30;2432.00
66831;DHT22;53739;44.224;22.528;2023-05-07T16:33:55;615.20;2432.00
66831;DHT22;53739;44.224;22.528;2023-05-07T16:36:21;615.10;2432.00
66831;DHT22;53739;44.224;22.528;2023-05-07T16:38:47;615.10;2432.00
66831;DHT22;53739;44.224;22.528;2023-05-07T16:41:13;615.10;2432.00
66831;DHT22;53739;44.224;22.528;2023-05-07T16:43:39;615.10;2432.00
66831;DHT22;53739;44.224;22.528;2023-05-07T16:46:04;615.00;2432.00
66831;DHT22;53739;44.224;22.528;2023-05-07T16:48:30;614.90;2432.00
66831;DHT22;53739;44.224;22.528;2023-05-07T16:50:57;614.90;2432.00
66831;DHT22;53739;44.224;22.528;2023-05-07T16:53:23;614.70;2432.00
66831;DHT22;53739;44.224;22.528;2023-05-07T16:55:49;614.70;2432.00
66831;DHT22;53739;44.224;22.528;2023-05-07T16:58:15;614.70;128.00
66831;DHT22;53739;44.224;22.528;2023-05-07T17:00:40;614.60;128.00